createdAt,value
2023-02-20T00:01:05.860Z,3.60
2023-02-20T00:06:10.016Z,3.10
2023-02-20T00:11:14.713Z,3.00
2023-02-20T00:16:18.983Z,3.30
2023-02-20T00:21:23.251Z,3.20
2023-02-20T00:26:27.250Z,3.00
2023-02-20T00:31:31.027Z,3.20
2023-02-20T00:36:35.027Z,3.60
2023-02-20T00:41:38.690Z,3.80
2023-02-20T00:46:42.717Z,3.50
2023-02-20T00:51:50.031Z,3.40
2023-02-20T00:56:53.877Z,3.90
2023-02-20T01:01:57.883Z,3.70
2023-02-20T01:07:01.903Z,4.10
2023-02-20T01:12:05.877Z,4.20
2023-02-20T01:17:10.121Z,4.00
2023-02-20T01:22:13.874Z,4.20
2023-02-20T01:27:19.698Z,3.20
2023-02-20T01:32:23.707Z,4.30
2023-02-20T01:37:27.503Z,3.10
2023-02-20T01:42:33.221Z,3.50
2023-02-20T01:47:37.037Z,2.90
2023-02-20T01:52:41.620Z,3.10
2023-02-20T01:57:52.526Z,3.50
2023-02-20T02:03:18.248Z,2.80
2023-02-20T02:08:23.852Z,2.40
2023-02-20T02:13:27.699Z,2.80
2023-02-20T02:19:39.718Z,2.70
2023-02-20T02:25:14.836Z,2.60
2023-02-20T02:30:30.469Z,3.00
2023-02-20T02:36:00.325Z,2.50
2023-02-20T02:41:44.298Z,2.40
2023-02-20T02:47:12.839Z,2.40
2023-02-20T02:52:37.194Z,2.10
2023-02-20T02:57:48.594Z,2.80
2023-02-20T03:03:50.634Z,2.30
2023-02-20T03:10:21.522Z,2.70
2023-02-20T03:23:32.298Z,2.00
2023-02-20T03:29:58.618Z,2.00
2023-02-20T03:36:22.125Z,2.30
2023-02-20T03:42:45.566Z,2.50
2023-02-20T03:49:13.222Z,2.20
2023-02-20T03:55:38.239Z,1.90
2023-02-20T04:02:05.132Z,1.70
2023-02-20T04:08:35.798Z,1.90
2023-02-20T04:15:02.253Z,1.70
2023-02-20T04:21:27.489Z,1.90
2023-02-20T04:27:53.506Z,2.00
2023-02-20T04:34:17.443Z,2.20
2023-02-20T04:40:42.296Z,1.80
2023-02-20T04:47:10.113Z,2.10
2023-02-20T04:53:36.135Z,2.10
2023-02-20T05:00:01.564Z,2.00
2023-02-20T05:06:29.305Z,2.10
2023-02-20T05:12:55.257Z,2.10
2023-02-20T05:19:28.198Z,2.30
2023-02-20T05:25:53.989Z,2.30
2023-02-20T05:32:20.196Z,2.00
2023-02-20T05:38:45.608Z,2.20
2023-02-20T05:45:11.314Z,2.60
2023-02-20T05:51:36.052Z,3.10
2023-02-20T05:58:00.872Z,2.30
2023-02-20T06:04:26.787Z,2.90
2023-02-20T06:10:52.560Z,2.60
2023-02-20T06:17:25.278Z,3.00
2023-02-20T06:23:45.338Z,2.60
2023-02-20T06:29:51.926Z,2.70
2023-02-20T06:36:01.982Z,2.50
2023-02-20T06:42:19.915Z,3.40
2023-02-20T06:47:50.353Z,3.20
2023-02-20T06:53:09.263Z,2.80
2023-02-20T06:59:03.500Z,3.40
2023-02-20T07:05:03.805Z,3.60
2023-02-20T07:11:19.283Z,3.50
2023-02-20T07:16:32.564Z,3.30
2023-02-20T07:21:37.029Z,3.10
2023-02-20T07:26:42.516Z,3.50
2023-02-20T07:32:06.343Z,3.70
2023-02-20T07:37:25.233Z,3.30
2023-02-20T07:42:36.981Z,3.40
2023-02-20T07:47:51.217Z,3.50
2023-02-20T07:52:59.532Z,4.10
2023-02-20T07:58:04.971Z,3.90
2023-02-20T08:03:10.311Z,3.70
2023-02-20T08:08:15.601Z,4.00
2023-02-20T08:21:03.848Z,4.40
2023-02-20T08:27:29.139Z,4.60
2023-02-20T08:33:55.272Z,4.90
2023-02-20T08:40:12.376Z,4.90
2023-02-20T08:46:17.759Z,4.80
2023-02-20T08:52:06.364Z,4.90
2023-02-20T08:57:51.355Z,4.40
2023-02-20T09:02:57.158Z,5.00
2023-02-20T09:08:05.369Z,5.60
2023-02-20T09:14:14.523Z,5.40
2023-02-20T09:20:29.689Z,4.80
2023-02-20T09:26:39.134Z,5.30
2023-02-20T09:32:07.161Z,5.80
2023-02-20T09:37:22.376Z,4.70
2023-02-20T09:43:42.733Z,5.10
2023-02-20T09:50:26.072Z,5.40
2023-02-20T09:56:52.846Z,4.00
2023-02-20T10:03:12.151Z,5.00
2023-02-20T10:16:00.025Z,3.90
2023-02-20T10:22:47.042Z,4.10
2023-02-20T10:29:17.787Z,4.60
2023-02-20T10:35:43.658Z,4.40
2023-02-20T10:42:17.315Z,4.10
2023-02-20T10:48:31.791Z,3.90
2023-02-20T10:54:25.027Z,3.40
2023-02-20T11:01:01.791Z,3.80
2023-02-20T11:07:48.631Z,4.20
2023-02-20T11:14:13.972Z,3.60
2023-02-20T11:20:44.280Z,3.90
2023-02-20T11:27:13.865Z,3.20
2023-02-20T11:33:44.294Z,3.20
2023-02-20T11:40:19.683Z,2.80
2023-02-20T12:00:19.608Z,2.00
2023-02-20T12:06:24.957Z,1.50
2023-02-20T12:12:25.388Z,1.80
2023-02-20T12:26:15.811Z,1.90
2023-02-20T12:32:50.232Z,1.60
2023-02-20T12:39:20.748Z,1.30
2023-02-20T12:45:52.130Z,1.40
2023-02-20T12:52:18.424Z,1.70
2023-02-20T12:58:55.676Z,2.00
2023-02-20T13:05:21.091Z,2.00
2023-02-20T13:18:11.241Z,1.90
2023-02-20T13:23:53.582Z,1.60
2023-02-20T13:30:02.612Z,2.00
2023-02-20T13:36:35.297Z,1.90
2023-02-20T13:43:05.995Z,1.80
2023-02-20T13:49:29.941Z,1.30
2023-02-20T13:55:55.001Z,1.10
2023-02-20T14:02:36.573Z,1.30
2023-02-20T14:09:08.231Z,1.20
2023-02-20T14:15:34.552Z,1.50
2023-02-20T14:21:59.834Z,1.70
2023-02-20T14:28:27.610Z,1.40
2023-02-20T14:35:01.084Z,1.60
2023-02-20T14:41:25.983Z,1.60
2023-02-20T14:47:19.726Z,1.40
2023-02-20T14:53:11.143Z,1.30
2023-02-20T14:58:45.507Z,1.60
2023-02-20T15:04:29.821Z,1.30
2023-02-20T15:09:45.164Z,1.80
2023-02-20T15:15:06.289Z,1.50
2023-02-20T15:20:39.805Z,1.90
2023-02-20T15:25:52.051Z,1.40
2023-02-20T15:32:02.399Z,2.00
2023-02-20T15:37:30.029Z,1.60
2023-02-20T15:43:04.859Z,1.50
2023-02-20T15:48:17.912Z,1.60
2023-02-20T15:53:31.227Z,1.20
2023-02-20T15:59:22.598Z,1.20
2023-02-20T16:04:30.716Z,1.30
2023-02-20T16:09:38.421Z,1.10
2023-02-20T16:15:12.242Z,1.30
2023-02-20T16:20:43.147Z,1.30
2023-02-20T16:26:09.575Z,1.10
2023-02-20T16:31:44.023Z,1.50
2023-02-20T16:36:54.989Z,1.10
2023-02-20T16:42:08.070Z,1.50
2023-02-20T16:47:20.495Z,2.00
2023-02-20T16:52:32.578Z,1.50
2023-02-20T16:58:10.227Z,1.50
2023-02-20T17:03:28.157Z,1.50
2023-02-20T17:09:03.861Z,1.40
2023-02-20T17:14:20.856Z,1.60
2023-02-20T17:19:29.486Z,1.50
2023-02-20T17:30:02.548Z,1.80
2023-02-20T17:35:32.443Z,1.90
2023-02-20T17:40:46.777Z,2.10
2023-02-20T17:46:27.602Z,1.90
2023-02-20T17:52:02.601Z,1.70
2023-02-20T17:57:36.352Z,1.60
2023-02-20T18:02:51.372Z,2.10
2023-02-20T18:08:16.732Z,2.30
2023-02-20T18:13:26.993Z,2.10
2023-02-20T18:18:46.600Z,2.40
2023-02-20T18:24:05.915Z,2.20
2023-02-20T18:29:29.910Z,2.00
2023-02-20T18:34:49.184Z,2.00
2023-02-20T18:40:20.081Z,2.10
2023-02-20T18:45:30.358Z,2.20
2023-02-20T18:50:49.887Z,2.20
2023-02-20T18:56:20.362Z,2.20
2023-02-20T19:01:33.052Z,2.50
2023-02-20T19:06:45.097Z,2.90
2023-02-20T19:11:53.883Z,3.00
2023-02-20T19:17:11.454Z,3.00
2023-02-20T19:22:28.856Z,3.30
2023-02-20T19:27:43.416Z,2.90
2023-02-20T19:32:50.694Z,3.20
2023-02-20T19:37:59.265Z,3.30
2023-02-20T19:43:10.714Z,3.00
2023-02-20T19:48:20.859Z,3.00
2023-02-20T19:53:29.638Z,3.50
2023-02-20T19:59:05.752Z,3.10
2023-02-20T20:04:20.766Z,2.30
2023-02-20T20:09:50.481Z,2.40
2023-02-20T20:15:05.552Z,2.20
2023-02-20T20:20:29.377Z,1.70
2023-02-20T20:25:40.826Z,1.90
2023-02-20T20:30:51.084Z,2.00
2023-02-20T20:36:00.145Z,1.70
2023-02-20T20:41:14.742Z,1.70
2023-02-20T20:46:40.209Z,1.70
2023-02-20T20:51:49.684Z,1.50
2023-02-20T20:57:02.323Z,1.40
2023-02-20T21:02:17.884Z,1.50
2023-02-20T21:07:38.970Z,2.00
2023-02-20T21:12:50.352Z,1.60
2023-02-20T21:17:56.298Z,1.50
2023-02-20T21:23:15.418Z,2.00
2023-02-20T21:28:25.566Z,2.50
2023-02-20T21:33:35.488Z,1.60
2023-02-20T21:38:43.030Z,1.60
2023-02-20T21:44:11.327Z,1.80
2023-02-20T21:50:08.290Z,1.50
2023-02-20T21:55:33.850Z,1.60
2023-02-20T22:00:50.018Z,1.60
2023-02-20T22:05:55.035Z,1.60
2023-02-20T22:11:20.509Z,2.00
2023-02-20T22:16:47.297Z,1.80
2023-02-20T22:22:23.932Z,1.80
2023-02-20T22:27:59.558Z,1.90
2023-02-20T22:33:25.616Z,2.10
2023-02-20T22:38:51.535Z,1.80
2023-02-20T22:44:14.793Z,1.60
2023-02-20T22:49:58.544Z,2.00
2023-02-20T22:55:22.443Z,1.90
2023-02-20T23:00:52.558Z,1.90
2023-02-20T23:06:25.143Z,2.20
2023-02-20T23:11:55.293Z,1.80
2023-02-20T23:17:34.251Z,1.80
2023-02-20T23:23:02.473Z,1.30
2023-02-20T23:28:36.595Z,2.10
2023-02-20T23:34:02.369Z,2.10
2023-02-20T23:39:35.488Z,1.80
2023-02-20T23:45:13.056Z,1.70
2023-02-20T23:50:36.851Z,1.80
2023-02-20T23:56:20.969Z,1.50
